| time (UTC) | temp F | wind direction | speed MPH | gust MPH | rain 1hr in | rain 24hr in | rain mn in | humidity % | barometer mb |
| 20260502204521 | 80 | 266 | 5.0 | 12.0 | 0.00 | 0.00 | 0.00 | 44 | 1007.6 |
| 20260502204023 | 81 | 330 | 4.0 | 12.0 | 0.00 | 0.00 | 0.00 | 44 | 1007.6 |
| 20260502203518 | 81 | 260 | 3.0 | 12.0 | 0.00 | 0.00 | 0.00 | 45 | 1007.7 |
| 20260502203021 | 81 | 330 | 4.0 | 10.0 | 0.00 | 0.00 | 0.00 | 44 | 1007.6 |
| 20260502202517 | 80 | 289 | 2.0 | 10.0 | 0.00 | 0.00 | 0.00 | 44 | 1007.7 |
| 20260502202017 | 81 | 305 | 5.0 | 10.0 | 0.00 | 0.00 | 0.00 | 43 | 1007.8 |
| 20260502201516 | 80 | 359 | 4.0 | 13.0 | 0.00 | 0.00 | 0.00 | 43 | 1007.8 |
| 20260502201015 | 80 | 272 | 5.0 | 13.0 | 0.00 | 0.00 | 0.00 | 44 | 1007.8 |
| 20260502200515 | 79 | 264 | 3.0 | 11.0 | 0.00 | 0.00 | 0.00 | 44 | 1007.9 |
| 20260502200015 | 79 | 243 | 5.0 | 11.0 | 0.00 | 0.00 | 0.00 | 45 | 1008.0 |
| 20260502195513 | 79 | 248 | 3.0 | 13.0 | 0.00 | 0.00 | 0.00 | 45 | 1008.0 |
| 20260502195011 | 79 | 224 | 7.0 | 13.0 | 0.00 | 0.00 | 0.00 | 46 | 1008.1 |
| 20260502194517 | 79 | 264 | 5.0 | 13.0 | 0.00 | 0.00 | 0.00 | 44 | 1008.1 |
| 20260502194010 | 79 | 214 | 7.0 | 13.0 | 0.00 | 0.00 | 0.00 | 45 | 1008.2 |
| 20260502193509 | 78 | 276 | 4.0 | 11.0 | 0.00 | 0.00 | 0.00 | 45 | 1008.2 |
| 20260502193008 | 78 | 247 | 7.0 | 11.0 | 0.00 | 0.00 | 0.00 | 45 | 1008.2 |
| 20260502192514 | 78 | 329 | 5.0 | 11.0 | 0.00 | 0.00 | 0.00 | 45 | 1008.3 |
| 20260502192007 | 78 | 216 | 4.0 | 11.0 | 0.00 | 0.00 | 0.00 | 47 | 1008.2 |
| 20260502191507 | 77 | 251 | 6.0 | 11.0 | 0.00 | 0.00 | 0.00 | 47 | 1008.4 |
| 20260502191005 | 77 | 238 | 4.0 | 11.0 | 0.00 | 0.00 | 0.00 | 47 | 1008.4 |
| 20260502190504 | 77 | 300 | 6.0 | 11.0 | 0.00 | 0.00 | 0.00 | 48 | 1008.4 |
| 20260502190005 | 77 | 248 | 5.0 | 11.0 | 0.00 | 0.00 | 0.00 | 47 | 1008.5 |
| 20260502185503 | 76 | 332 | 3.0 | 11.0 | 0.00 | 0.00 | 0.00 | 47 | 1008.5 |
| 20260502185002 | 77 | 243 | 5.0 | 9.0 | 0.00 | 0.00 | 0.00 | 46 | 1008.5 |
| 20260502184502 | 77 | 271 | 5.0 | 9.0 | 0.00 | 0.00 | 0.00 | 47 | 1008.5 |
| 20260502184002 | 76 | 253 | 4.0 | 9.0 | 0.00 | 0.00 | 0.00 | 48 | 1008.6 |
| 20260502183600 | 76 | 233 | 3.0 | 9.0 | 0.00 | 0.00 | 0.00 | 49 | 1008.6 |
| 20260502183108 | 75 | 324 | 3.0 | 8.0 | 0.00 | 0.00 | 0.00 | 49 | 1008.6 |
| 20260502182600 | 76 | 230 | 3.0 | 8.0 | 0.00 | 0.00 | 0.00 | 49 | 1008.6 |
| 20260502182057 | 76 | 283 | 3.0 | 7.0 | 0.00 | 0.00 | 0.00 | 51 | 1008.6 |
| 20260502181558 | 75 | 342 | 2.0 | 8.0 | 0.00 | 0.00 | 0.00 | 50 | 1008.6 |
| 20260502181056 | 75 | 262 | 3.0 | 8.0 | 0.00 | 0.00 | 0.00 | 51 | 1008.7 |
| 20260502180555 | 75 | 326 | 2.0 | 4.0 | 0.00 | 0.00 | 0.00 | 53 | 1008.7 |
| 20260502164036 | 68 | 26 | 2.0 | 3.0 | 0.00 | 0.00 | 0.00 | 63 | 1009.0 |
| 20260502163535 | 67 | 9 | 1.0 | 3.0 | 0.00 | 0.00 | 0.00 | 65 | 1009.0 |
| 20260502163042 | 66 | 327 | 2.0 | 4.0 | 0.00 | 0.00 | 0.00 | 65 | 1009.0 |
| 20260502162534 | 65 | 320 | 1.0 | 5.0 | 0.00 | 0.00 | 0.00 | 67 | 1009.1 |
| 20260502162032 | 65 | 323 | 2.0 | 6.0 | 0.00 | 0.00 | 0.00 | 67 | 1009.0 |
| 20260502161542 | 65 | 304 | 2.0 | 5.0 | 0.00 | 0.00 | 0.00 | 66 | 1008.9 |
| 20260502161030 | 65 | 21 | 2.0 | 5.0 | 0.00 | 0.00 | 0.00 | 66 | 1008.9 |
| 20260502160530 | 64 | 31 | 2.0 | 8.0 | 0.00 | 0.00 | 0.00 | 68 | 1008.9 |
| 20260502152021 | 62 | 322 | 2.0 | 9.0 | 0.00 | 0.00 | 0.00 | 72 | 1008.8 |
| 20260502151520 | 62 | 354 | 3.0 | 6.0 | 0.00 | 0.00 | 0.00 | 73 | 1008.7 |
| 20260502151020 | 61 | 4 | 2.0 | 8.0 | 0.00 | 0.00 | 0.00 | 75 | 1008.8 |
| 20260502150519 | 61 | 337 | 3.0 | 8.0 | 0.00 | 0.00 | 0.00 | 76 | 1008.7 |
| 20260502130558 | 58 | 285 | 2.0 | 5.0 | 0.00 | 0.00 | 0.00 | 80 | 1007.6 |
| 20260502123554 | 58 | 339 | 2.0 | 8.0 | 0.00 | 0.00 | 0.00 | 79 | 1006.7 |
| 20260502123111 | 58 | 345 | 3.0 | 8.0 | 0.00 | 0.00 | 0.00 | 79 | 1006.8 |
| 20260502122550 | 58 | 347 | 2.0 | 5.0 | 0.00 | 0.00 | 0.00 | 79 | 1006.9 |
| 20260502122052 | 58 | 323 | 1.0 | 4.0 | 0.00 | 0.00 | 0.00 | 79 | 1006.9 |
| 20260502121555 | 58 | 314 | 2.0 | 4.0 | 0.00 | 0.00 | 0.00 | 79 | 1007.0 |
| 20260502121048 | 59 | 301 | 1.0 | 3.0 | 0.00 | 0.00 | 0.00 | 79 | 1007.2 |
| 20260502120547 | 59 | 347 | 1.0 | 4.0 | 0.00 | 0.00 | 0.00 | 79 | 1007.3 |
| 20260502115546 | 59 | 305 | 2.0 | 4.0 | 0.00 | 0.00 | 0.00 | 79 | 1007.4 |
| 20260502115046 | 59 | 327 | 2.0 | 4.0 | 0.00 | 0.00 | 0.00 | 79 | 1007.4 |
| 20260502114545 | 59 | 266 | 2.0 | 4.0 | 0.00 | 0.00 | 0.00 | 79 | 1007.3 |
| 20260502114047 | 59 | 263 | 2.0 | 3.0 | 0.00 | 0.00 | 0.00 | 79 | 1007.4 |
| 20260502113544 | 59 | 286 | 1.0 | 6.0 | 0.00 | 0.00 | 0.00 | 79 | 1007.4 |
| 20260502113049 | 59 | 293 | 2.0 | 6.0 | 0.00 | 0.00 | 0.00 | 79 | 1007.4 |
| 20260502112543 | 59 | 246 | 1.0 | 4.0 | 0.00 | 0.00 | 0.00 | 79 | 1007.3 |
| 20260502112043 | 59 | 286 | 1.0 | 4.0 | 0.00 | 0.00 | 0.00 | 79 | 1007.2 |
| 20260502111545 | 59 | 293 | 1.0 | 2.0 | 0.00 | 0.00 | 0.00 | 78 | 1007.3 |
| 20260502111044 | 60 | 298 | 0.0 | 2.0 | 0.00 | 0.00 | 0.00 | 78 | 1007.3 |
| 20260502110541 | 60 | 336 | 0.0 | 3.0 | 0.00 | 0.00 | 0.00 | 78 | 1007.3 |
| 20260502110042 | 60 | 318 | 1.0 | 3.0 | 0.00 | 0.00 | 0.00 | 78 | 1007.3 |
| 20260502105540 | 60 | 331 | 1.0 | 4.0 | 0.00 | 0.00 | 0.00 | 77 | 1007.3 |
| 20260502105039 | 60 | 332 | 1.0 | 4.0 | 0.00 | 0.00 | 0.00 | 77 | 1007.3 |
| 20260502104539 | 60 | 53 | 0.0 | 4.0 | 0.00 | 0.00 | 0.00 | 76 | 1007.3 |
| 20260502104039 | 61 | 326 | 1.0 | 4.0 | 0.00 | 0.00 | 0.00 | 76 | 1007.3 |
| 20260502103537 | 61 | 327 | 1.0 | 4.0 | 0.00 | 0.00 | 0.00 | 75 | 1007.4 |
| 20260502103036 | 61 | 315 | 1.0 | 4.0 | 0.00 | 0.00 | 0.00 | 75 | 1007.4 |
| 20260502102534 | 61 | 337 | 2.0 | 4.0 | 0.00 | 0.00 | 0.00 | 74 | 1007.4 |
| 20260502102035 | 61 | 332 | 2.0 | 4.0 | 0.00 | 0.00 | 0.00 | 74 | 1007.4 |
| 20260502101539 | 62 | 335 | 1.0 | 6.0 | 0.00 | 0.00 | 0.00 | 73 | 1007.5 |
| 20260502101033 | 62 | 348 | 3.0 | 6.0 | 0.00 | 0.00 | 0.00 | 73 | 1007.5 |
| 20260502100532 | 62 | 335 | 2.0 | 6.0 | 0.00 | 0.00 | 0.00 | 72 | 1007.5 |
| 20260502091526 | 63 | 297 | 3.0 | 6.0 | 0.00 | 0.00 | 0.00 | 72 | 1007.7 |
| 20260502091025 | 63 | 322 | 3.0 | 6.0 | 0.00 | 0.00 | 0.00 | 72 | 1007.8 |
| 20260502090525 | 63 | 248 | 2.0 | 5.0 | 0.00 | 0.00 | 0.00 | 72 | 1007.9 |
| 20260502071512 | 66 | 323 | 4.0 | 8.0 | 0.00 | 0.00 | 0.00 | 72 | 1008.2 |
| 20260502071011 | 66 | 349 | 2.0 | 9.0 | 0.00 | 0.00 | 0.00 | 72 | 1008.2 |
| 20260502070517 | 66 | 344 | 3.0 | 9.0 | 0.00 | 0.00 | 0.00 | 71 | 1008.3 |
| 20260502070016 | 66 | 339 | 3.0 | 9.0 | 0.00 | 0.00 | 0.00 | 71 | 1008.3 |
| 20260502065510 | 66 | 331 | 3.0 | 9.0 | 0.00 | 0.00 | 0.00 | 70 | 1008.2 |
| 20260502065013 | 67 | 326 | 3.0 | 9.0 | 0.00 | 0.00 | 0.00 | 70 | 1008.2 |
| 20260502064510 | 67 | 354 | 3.0 | 9.0 | 0.00 | 0.00 | 0.00 | 69 | 1008.2 |
| 20260502064009 | 67 | 341 | 3.0 | 9.0 | 0.00 | 0.00 | 0.00 | 68 | 1008.2 |
| 20260502063509 | 68 | 343 | 3.0 | 8.0 | 0.00 | 0.00 | 0.00 | 68 | 1008.2 |
| 20260502063009 | 68 | 334 | 4.0 | 8.0 | 0.00 | 0.00 | 0.00 | 67 | 1008.3 |
| 20260502062509 | 68 | 320 | 3.0 | 9.0 | 0.00 | 0.00 | 0.00 | 66 | 1008.2 |
| 20260502062009 | 68 | 301 | 3.0 | 9.0 | 0.00 | 0.00 | 0.00 | 66 | 1008.2 |
| 20260502061509 | 69 | 322 | 3.0 | 9.0 | 0.00 | 0.00 | 0.00 | 65 | 1008.3 |
| 20260502061008 | 69 | 347 | 3.0 | 9.0 | 0.00 | 0.00 | 0.00 | 64 | 1008.3 |
| 20260502060513 | 69 | 304 | 4.0 | 11.0 | 0.00 | 0.00 | 0.00 | 64 | 1008.3 |
| 20260502060008 | 69 | 333 | 5.0 | 11.0 | 0.00 | 0.00 | 0.00 | 64 | 1008.3 |
| 20260502055508 | 70 | 341 | 3.0 | 9.0 | 0.00 | 0.00 | 0.00 | 63 | 1008.3 |
| 20260502055008 | 70 | 317 | 3.0 | 5.0 | 0.00 | 0.00 | 0.00 | 63 | 1008.3 |
| 20260502054508 | 70 | 281 | 2.0 | 8.0 | 0.00 | 0.00 | 0.00 | 62 | 1008.2 |
| 20260502054008 | 71 | 338 | 3.0 | 8.0 | 0.00 | 0.00 | 0.00 | 61 | 1008.1 |
| 20260502053507 | 71 | 336 | 2.0 | 5.0 | 0.00 | 0.00 | 0.00 | 61 | 1008.2 |
| 20260502053007 | 71 | 330 | 2.0 | 5.0 | 0.00 | 0.00 | 0.00 | 60 | 1008.1 |
| 20260502052507 | 71 | 316 | 3.0 | 6.0 | 0.00 | 0.00 | 0.00 | 60 | 1008.2 |
| 20260502052009 | 72 | 346 | 2.0 | 6.0 | 0.00 | 0.00 | 0.00 | 60 | 1008.2 |
| 20260502051507 | 72 | 252 | 2.0 | 6.0 | 0.00 | 0.00 | 0.00 | 60 | 1008.1 |
| 20260502051006 | 72 | 324 | 3.0 | 6.0 | 0.00 | 0.00 | 0.00 | 61 | 1008.1 |
| 20260502050506 | 72 | 276 | 3.0 | 7.0 | 0.00 | 0.00 | 0.00 | 60 | 1008.1 |
| 20260502050010 | 72 | 278 | 2.0 | 7.0 | 0.00 | 0.00 | 0.00 | 60 | 1008.0 |
| 20260502045506 | 73 | 285 | 2.0 | 5.0 | 0.00 | 0.00 | 0.00 | 60 | 1008.1 |
| 20260502045006 | 73 | 278 | 2.0 | 5.0 | 0.00 | 0.00 | 0.00 | 60 | 1008.0 |
| 20260502044505 | 73 | 337 | 2.0 | 5.0 | 0.00 | 0.00 | 0.00 | 60 | 1008.0 |
| 20260502044005 | 73 | 303 | 2.0 | 5.0 | 0.00 | 0.00 | 0.00 | 60 | 1007.9 |
| 20260502043505 | 74 | 308 | 1.0 | 8.0 | 0.00 | 0.00 | 0.00 | 59 | 1007.9 |
| 20260502043004 | 74 | 290 | 2.0 | 8.0 | 0.00 | 0.00 | 0.00 | 59 | 1007.8 |
| 20260502042504 | 74 | 354 | 2.0 | 5.0 | 0.00 | 0.00 | 0.00 | 59 | 1007.8 |
| 20260502042005 | 74 | 283 | 2.0 | 5.0 | 0.00 | 0.00 | 0.00 | 59 | 1007.7 |
| 20260502041504 | 74 | 329 | 2.0 | 5.0 | 0.00 | 0.00 | 0.00 | 58 | 1007.6 |
| 20260502041004 | 75 | 324 | 2.0 | 5.0 | 0.00 | 0.00 | 0.00 | 57 | 1007.6 |
| 20260502040503 | 75 | 297 | 2.0 | 6.0 | 0.00 | 0.00 | 0.00 | 57 | 1007.5 |
| 20260502040004 | 75 | 312 | 2.0 | 5.0 | 0.00 | 0.00 | 0.00 | 56 | 1007.5 |
| 20260502035503 | 76 | 303 | 2.0 | 5.0 | 0.00 | 0.00 | 0.00 | 56 | 1007.4 |
| 20260502035003 | 76 | 291 | 2.0 | 6.0 | 0.00 | 0.00 | 0.00 | 55 | 1007.3 |
| 20260502034503 | 76 | 314 | 2.0 | 6.0 | 0.00 | 0.00 | 0.00 | 55 | 1007.2 |
| 20260502034003 | 76 | 300 | 2.0 | 6.0 | 0.00 | 0.00 | 0.00 | 54 | 1007.2 |
| 20260502033502 | 77 | 308 | 2.0 | 6.0 | 0.00 | 0.00 | 0.00 | 54 | 1007.1 |
| 20260502033001 | 77 | 314 | 1.0 | 8.0 | 0.00 | 0.00 | 0.00 | 53 | 1007.1 |
| 20260502032503 | 77 | 307 | 2.0 | 8.0 | 0.00 | 0.00 | 0.00 | 53 | 1007.0 |
| 20260502032001 | 77 | 311 | 1.0 | 6.0 | 0.00 | 0.00 | 0.00 | 53 | 1007.0 |
| 20260502031501 | 78 | 253 | 3.0 | 6.0 | 0.00 | 0.00 | 0.00 | 53 | 1006.9 |
| 20260502031002 | 78 | 316 | 3.0 | 8.0 | 0.00 | 0.00 | 0.00 | 53 | 1006.9 |
| 20260502030500 | 78 | 291 | 3.0 | 8.0 | 0.00 | 0.00 | 0.00 | 52 | 1006.8 |
| 20260502030002 | 79 | 291 | 3.0 | 7.0 | 0.00 | 0.00 | 0.00 | 52 | 1006.8 |
| 20260502025501 | 79 | 336 | 2.0 | 6.0 | 0.00 | 0.00 | 0.00 | 51 | 1006.7 |
| 20260502025001 | 79 | 297 | 3.0 | 6.0 | 0.00 | 0.00 | 0.00 | 51 | 1006.7 |
| 20260502024502 | 80 | 305 | 2.0 | 9.0 | 0.00 | 0.00 | 0.00 | 50 | 1006.7 |
| 20260502024100 | 80 | 350 | 3.0 | 9.0 | 0.00 | 0.00 | 0.00 | 49 | 1006.7 |
| 20260502024001 | 80 | 281 | 3.0 | 8.0 | 0.00 | 0.00 | 0.00 | 49 | 1006.7 |
| 20260502023601 | 80 | 319 | 1.0 | 8.0 | 0.00 | 0.00 | 0.00 | 49 | 1006.7 |
| 20260502023100 | 81 | 341 | 4.0 | 10.0 | 0.00 | 0.00 | 0.00 | 48 | 1006.7 |
| 20260502022600 | 81 | 326 | 4.0 | 8.0 | 0.00 | 0.00 | 0.00 | 47 | 1006.6 |
| 20260502022059 | 81 | 256 | 2.0 | 9.0 | 0.00 | 0.00 | 0.00 | 47 | 1006.6 |
| 20260502021601 | 82 | 299 | 2.0 | 9.0 | 0.00 | 0.00 | 0.00 | 47 | 1006.6 |
| 20260502021101 | 82 | 319 | 2.0 | 5.0 | 0.00 | 0.00 | 0.00 | 46 | 1006.6 |
| 20260502020558 | 82 | 301 | 1.0 | 9.0 | 0.00 | 0.00 | 0.00 | 47 | 1006.6 |
| 20260502020059 | 82 | 41 | 5.0 | 10.0 | 0.00 | 0.00 | 0.00 | 46 | 1006.6 |
| 20260502015558 | 82 | 335 | 4.0 | 10.0 | 0.00 | 0.00 | 0.00 | 45 | 1006.6 |
| 20260502015058 | 83 | 326 | 5.0 | 9.0 | 0.00 | 0.00 | 0.00 | 44 | 1006.7 |
| 20260502014558 | 82 | 343 | 4.0 | 12.0 | 0.00 | 0.00 | 0.00 | 44 | 1006.6 |
| 20260502014057 | 83 | 16 | 5.0 | 12.0 | 0.00 | 0.00 | 0.00 | 43 | 1006.7 |
| 20260502013557 | 84 | 318 | 4.0 | 10.0 | 0.00 | 0.00 | 0.00 | 41 | 1006.6 |
| 20260502013058 | 84 | 278 | 3.0 | 7.0 | 0.00 | 0.00 | 0.00 | 40 | 1006.7 |
| 20260502012556 | 84 | 343 | 2.0 | 11.0 | 0.00 | 0.00 | 0.00 | 40 | 1006.7 |
| 20260502012056 | 84 | 340 | 3.0 | 11.0 | 0.00 | 0.00 | 0.00 | 39 | 1006.7 |
| 20260502011556 | 84 | 335 | 3.0 | 10.0 | 0.00 | 0.00 | 0.00 | 39 | 1006.8 |
| 20260502011056 | 84 | 354 | 3.0 | 9.0 | 0.00 | 0.00 | 0.00 | 39 | 1006.8 |
| 20260502010556 | 84 | 343 | 3.0 | 11.0 | 0.00 | 0.00 | 0.00 | 40 | 1006.8 |
| 20260502010055 | 84 | 14 | 3.0 | 11.0 | 0.00 | 0.00 | 0.00 | 41 | 1006.8 |
| 20260502005555 | 85 | 354 | 4.0 | 12.0 | 0.00 | 0.00 | 0.00 | 40 | 1006.8 |
| 20260502005055 | 85 | 12 | 3.0 | 10.0 | 0.00 | 0.00 | 0.00 | 41 | 1006.9 |
| 20260502004555 | 86 | 345 | 6.0 | 10.0 | 0.00 | 0.00 | 0.00 | 39 | 1006.9 |
| 20260502004055 | 86 | 326 | 3.0 | 11.0 | 0.00 | 0.00 | 0.00 | 39 | 1006.8 |
| 20260502003554 | 86 | 4 | 4.0 | 12.0 | 0.00 | 0.00 | 0.00 | 39 | 1006.8 |
| 20260502003054 | 86 | 335 | 3.0 | 12.0 | 0.00 | 0.00 | 0.00 | 39 | 1006.9 |
| 20260502002555 | 85 | 10 | 3.0 | 12.0 | 0.00 | 0.00 | 0.00 | 40 | 1006.9 |
| 20260502002053 | 86 | 343 | 6.0 | 12.0 | 0.00 | 0.00 | 0.00 | 38 | 1006.9 |
| 20260502001556 | 86 | 359 | 4.0 | 13.0 | 0.00 | 0.00 | 0.00 | 37 | 1006.9 |
| 20260502001054 | 87 | 4 | 3.0 | 13.0 | 0.00 | 0.00 | 0.00 | 36 | 1006.9 |
| 20260502000553 | 87 | 275 | 3.0 | 9.0 | 0.00 | 0.00 | 0.00 | 36 | 1006.9 |
| 20260502000059 | 87 | 23 | 2.0 | 8.0 | 0.00 | 0.00 | 0.00 | 37 | 1006.9 |
| 20260501235554 | 87 | 359 | 3.0 | 9.0 | 0.00 | 0.00 | 0.00 | 36 | 1007.0 |
| 20260501235053 | 87 | 324 | 4.0 | 9.0 | 0.00 | 0.00 | 0.00 | 37 | 1007.0 |
| 20260501234553 | 87 | 44 | 4.0 | 13.0 | 0.00 | 0.00 | 0.00 | 37 | 1007.0 |
| 20260501234051 | 86 | 118 | 2.0 | 13.0 | 0.00 | 0.00 | 0.00 | 37 | 1007.1 |
| 20260501233550 | 86 | 295 | 3.0 | 13.0 | 0.00 | 0.00 | 0.00 | 35 | 1007.1 |
| 20260501233050 | 85 | 354 | 7.0 | 14.0 | 0.00 | 0.00 | 0.00 | 35 | 1007.2 |
| 20260501232552 | 86 | 296 | 7.0 | 14.0 | 0.00 | 0.00 | 0.00 | 34 | 1007.1 |
| 20260501232052 | 87 | 341 | 4.0 | 11.0 | 0.00 | 0.00 | 0.00 | 34 | 1007.2 |
| 20260501231554 | 87 | 259 | 5.0 | 11.0 | 0.00 | 0.00 | 0.00 | 32 | 1007.2 |
| 20260501231047 | 87 | 282 | 4.0 | 13.0 | 0.00 | 0.00 | 0.00 | 33 | 1007.3 |
| 20260501230547 | 86 | 287 | 7.0 | 13.0 | 0.00 | 0.00 | 0.00 | 32 | 1007.4 |
| 20260501230047 | 87 | 343 | 4.0 | 12.0 | 0.00 | 0.00 | 0.00 | 34 | 1007.4 |
| 20260501225546 | 86 | 337 | 5.0 | 12.0 | 0.00 | 0.00 | 0.00 | 34 | 1007.5 |
| 20260501225045 | 87 | 349 | 2.0 | 11.0 | 0.00 | 0.00 | 0.00 | 35 | 1007.5 |
| 20260501224545 | 87 | 260 | 4.0 | 10.0 | 0.00 | 0.00 | 0.00 | 34 | 1007.6 |
| 20260501224048 | 87 | 313 | 4.0 | 9.0 | 0.00 | 0.00 | 0.00 | 34 | 1007.7 |
| 20260501223543 | 87 | 278 | 5.0 | 9.0 | 0.00 | 0.00 | 0.00 | 34 | 1007.8 |
| 20260501223042 | 86 | 274 | 3.0 | 10.0 | 0.00 | 0.00 | 0.00 | 34 | 1007.9 |
| 20260501222543 | 86 | 255 | 6.0 | 11.0 | 0.00 | 0.00 | 0.00 | 34 | 1008.0 |
| 20260501222040 | 86 | 329 | 4.0 | 11.0 | 0.00 | 0.00 | 0.00 | 34 | 1008.1 |
| 20260501221551 | 86 | 270 | 5.0 | 11.0 | 0.00 | 0.00 | 0.00 | 34 | 1008.2 |
| 20260501221038 | 85 | 267 | 4.0 | 10.0 | 0.00 | 0.00 | 0.00 | 35 | 1008.3 |
| 20260501220538 | 86 | 261 | 4.0 | 9.0 | 0.00 | 0.00 | 0.00 | 34 | 1008.4 |
| 20260501220041 | 86 | 299 | 6.0 | 9.0 | 0.00 | 0.00 | 0.00 | 34 | 1008.5 |
| 20260501215536 | 85 | 315 | 1.0 | 9.0 | 0.00 | 0.00 | 0.00 | 35 | 1008.5 |
| 20260501215038 | 85 | 268 | 4.0 | 12.0 | 0.00 | 0.00 | 0.00 | 35 | 1008.6 |
| 20260501214543 | 85 | 239 | 4.0 | 9.0 | 0.00 | 0.00 | 0.00 | 36 | 1008.6 |
| 20260501214034 | 84 | 332 | 2.0 | 11.0 | 0.00 | 0.00 | 0.00 | 36 | 1008.6 |
| 20260501213534 | 85 | 216 | 5.0 | 11.0 | 0.00 | 0.00 | 0.00 | 36 | 1008.7 |
| 20260501213034 | 85 | 262 | 5.0 | 9.0 | 0.00 | 0.00 | 0.00 | 35 | 1008.7 |
| 20260501212536 | 85 | 283 | 4.0 | 10.0 | 0.00 | 0.00 | 0.00 | 35 | 1008.8 |
| 20260501212034 | 85 | 271 | 6.0 | 10.0 | 0.00 | 0.00 | 0.00 | 35 | 1008.8 |
| 20260501211534 | 86 | 263 | 4.0 | 9.0 | 0.00 | 0.00 | 0.00 | 35 | 1008.9 |
| 20260501211033 | 85 | 285 | 3.0 | 9.0 | 0.00 | 0.00 | 0.00 | 37 | 1008.9 |
| 20260501210533 | 85 | 206 | 3.0 | 9.0 | 0.00 | 0.00 | 0.00 | 36 | 1009.0 |
| 20260501210033 | 86 | 270 | 3.0 | 9.0 | 0.00 | 0.00 | 0.00 | 35 | 1008.9 |
| 20260501205532 | 85 | 301 | 2.0 | 6.0 | 0.00 | 0.00 | 0.00 | 36 | 1008.9 |
| 20260501205032 | 85 | 359 | 2.0 | 8.0 | 0.00 | 0.00 | 0.00 | 36 | 1009.0 |